In Rescue
 
Open Full Screen Window  High Contrast Mode
Wind Gusting 18 knots
12
October 25, 2021 5:05 PM EDT
Weather Information
Wind Direction
  350 °
Wind Speed
  12 kt (14 mph)
Wind Gust
  18 kt (21 mph)
Altimeter
29.90 in
Visibility
10 SM
Temperature
08° C
46° F
Dewpoint
08° C
46° F
Humidity
100%
Sky Condition
Overcast @ 1,000 ft
MVFR

METAR KAMN 252105Z AUTO 35012G18KT 10SM OVC010 08/08 A2990 RMK AO2 T00800076

FAA Disclaimer: The data displayed is for advisory purposes only and is not to be used for flight planning or operations.